createdAt,value
2019-03-17T00:00:00.730Z,812.83
2019-03-17T00:00:05.102Z,812.86
2019-03-17T00:00:09.399Z,812.83
2019-03-17T00:00:13.705Z,812.87
2019-03-17T00:00:18.095Z,812.85
2019-03-17T00:00:22.405Z,812.85
2019-03-17T00:00:26.699Z,812.87
2019-03-17T00:00:30.997Z,812.85
2019-03-17T00:00:35.291Z,812.86
2019-03-17T00:00:39.626Z,812.91
2019-03-17T00:00:43.924Z,812.84
2019-03-17T00:00:48.278Z,812.88
2019-03-17T00:00:52.606Z,812.89
2019-03-17T00:00:56.909Z,812.88
2019-03-17T00:01:01.226Z,812.87
2019-03-17T00:01:05.535Z,812.9
2019-03-17T00:01:12.984Z,812.92
2019-03-17T00:01:17.285Z,812.94
2019-03-17T00:01:21.581Z,812.9
2019-03-17T00:01:25.889Z,812.95
2019-03-17T00:01:30.199Z,812.92
2019-03-17T00:01:34.495Z,812.9
2019-03-17T00:01:38.796Z,812.9
2019-03-17T00:01:43.178Z,812.92
2019-03-17T00:02:00.208Z,812.91
2019-03-17T00:02:04.501Z,812.94
2019-03-17T00:02:08.804Z,812.97
2019-03-17T00:02:13.011Z,812.92
2019-03-17T00:02:17.369Z,812.97
2019-03-17T00:02:21.572Z,812.95
2019-03-17T00:02:25.865Z,812.89
2019-03-17T00:02:30.156Z,812.92
2019-03-17T00:02:34.355Z,812.94
2019-03-17T00:02:38.656Z,812.96
2019-03-17T00:02:42.963Z,812.96
2019-03-17T00:02:47.273Z,812.99
2019-03-17T00:02:51.574Z,812.93
2019-03-17T00:02:55.880Z,812.99
2019-03-17T00:03:00.184Z,813
2019-03-17T00:03:04.492Z,813.02
2019-03-17T00:03:08.691Z,813
2019-03-17T00:03:12.980Z,812.96
2019-03-17T00:03:17.190Z,812.95
2019-03-17T00:03:21.555Z,813
2019-03-17T00:03:25.864Z,812.96
2019-03-17T00:03:30.182Z,812.98
2019-03-17T00:03:34.385Z,812.97
2019-03-17T00:03:38.673Z,813.02
2019-03-17T00:03:42.902Z,813
2019-03-17T00:03:47.099Z,813
2019-03-17T00:03:51.393Z,813.02
2019-03-17T00:03:55.682Z,813
2019-03-17T00:03:59.894Z,813.02
2019-03-17T00:04:36.002Z,813
2019-03-17T00:04:40.310Z,813.01
2019-03-17T00:04:44.608Z,813.01
2019-03-17T00:04:48.713Z,813.01
2019-03-17T00:04:52.706Z,813.01
2019-03-17T00:04:56.997Z,813.01
2019-03-17T00:05:01.186Z,812.99
2019-03-17T00:05:05.499Z,813.02
2019-03-17T00:05:09.793Z,812.98
2019-03-17T00:05:13.902Z,812.99
2019-03-17T00:05:18.205Z,812.99
2019-03-17T00:05:22.506Z,812.96
2019-03-17T00:05:26.801Z,813.02
2019-03-17T00:05:31.008Z,812.96
2019-03-17T00:05:35.299Z,812.95
2019-03-17T00:05:39.575Z,813.02
2019-03-17T00:05:43.871Z,812.98
2019-03-17T00:05:48.165Z,812.98
2019-03-17T00:05:52.472Z,812.97
2019-03-17T00:05:56.760Z,812.97
2019-03-17T00:06:01.064Z,812.97
2019-03-17T00:06:07.702Z,812.98
2019-03-17T00:06:12.236Z,812.99
2019-03-17T00:06:16.536Z,812.98
2019-03-17T00:06:20.833Z,813
2019-03-17T00:06:25.131Z,812.98
2019-03-17T00:06:29.424Z,813.03
2019-03-17T00:06:33.740Z,812.96
2019-03-17T00:06:38.032Z,812.97
2019-03-17T00:06:42.337Z,812.95
2019-03-17T00:06:46.636Z,812.97
2019-03-17T00:06:50.934Z,813.02
2019-03-17T00:06:55.232Z,813.03
2019-03-17T00:06:59.556Z,813
2019-03-17T00:07:03.879Z,812.98
2019-03-17T00:07:08.196Z,813.01
2019-03-17T00:07:12.387Z,812.98
2019-03-17T00:07:16.695Z,813
2019-03-17T00:07:20.994Z,812.99
2019-03-17T00:07:25.301Z,812.96
2019-03-17T00:07:29.496Z,813.03
2019-03-17T00:07:33.895Z,813
2019-03-17T00:07:38.087Z,813.01
2019-03-17T00:07:42.391Z,813.02
2019-03-17T00:07:46.684Z,812.99
2019-03-17T00:07:50.987Z,813
2019-03-17T00:07:55.275Z,813.03
2019-03-17T00:07:59.569Z,812.98
2019-03-17T00:08:03.877Z,812.98
2019-03-17T00:08:08.163Z,812.98
2019-03-17T00:08:12.380Z,812.95
2019-03-17T00:08:16.680Z,812.97
2019-03-17T00:08:20.976Z,812.95
2019-03-17T00:08:25.284Z,812.95
2019-03-17T00:08:29.576Z,812.95
2019-03-17T00:08:33.870Z,812.96
2019-03-17T00:08:38.065Z,812.92
2019-03-17T00:08:42.368Z,812.9
2019-03-17T00:08:46.669Z,812.94
2019-03-17T00:08:50.962Z,812.91
2019-03-17T00:08:55.255Z,812.92
2019-03-17T00:08:59.546Z,812.94
2019-03-17T00:09:03.835Z,812.94
2019-03-17T00:09:08.131Z,812.93
2019-03-17T00:09:12.439Z,812.93
2019-03-17T00:09:16.729Z,812.94
2019-03-17T00:09:21.123Z,812.93
2019-03-17T00:09:25.427Z,812.88
2019-03-17T00:09:29.716Z,812.89
2019-03-17T00:09:33.992Z,812.88
2019-03-17T00:09:38.355Z,812.88
2019-03-17T00:09:42.679Z,812.9
2019-03-17T00:09:46.967Z,812.85
2019-03-17T00:09:51.274Z,812.86
2019-03-17T00:09:55.565Z,812.86
2019-03-17T00:09:59.849Z,812.86
2019-03-17T00:10:04.145Z,812.84
2019-03-17T00:10:08.430Z,812.83
2019-03-17T00:10:12.727Z,812.85
2019-03-17T00:10:16.923Z,812.83
2019-03-17T00:10:21.219Z,812.83
2019-03-17T00:10:25.411Z,812.85
2019-03-17T00:10:29.710Z,812.83
2019-03-17T00:10:34.083Z,812.83
2019-03-17T00:10:38.407Z,812.82
2019-03-17T00:10:42.700Z,812.84
2019-03-17T00:10:46.987Z,812.82
2019-03-17T00:10:54.181Z,812.81
2019-03-17T00:10:58.485Z,812.79
2019-03-17T00:11:02.806Z,812.8
2019-03-17T00:11:07.106Z,812.79
2019-03-17T00:11:11.360Z,812.78
2019-03-17T00:11:15.558Z,812.79
2019-03-17T00:11:19.860Z,812.77
2019-03-17T00:11:24.149Z,812.76
2019-03-17T00:11:28.340Z,812.76
2019-03-17T00:11:32.633Z,812.76
2019-03-17T00:11:36.944Z,812.68
2019-03-17T00:11:41.314Z,812.73
2019-03-17T00:11:45.514Z,812.71
2019-03-17T00:11:49.847Z,812.72
2019-03-17T00:11:54.051Z,812.72
2019-03-17T00:11:58.348Z,812.7
2019-03-17T00:12:02.656Z,812.71
2019-03-17T00:12:06.958Z,812.69
2019-03-17T00:12:11.272Z,812.68
2019-03-17T00:12:15.576Z,812.61
2019-03-17T00:12:19.984Z,812.61
2019-03-17T00:12:24.174Z,812.62
2019-03-17T00:12:31.289Z,812.63
2019-03-17T00:12:35.632Z,812.63
2019-03-17T00:12:39.935Z,812.61
2019-03-17T00:12:44.238Z,812.62
2019-03-17T00:12:48.543Z,812.59
2019-03-17T00:12:52.746Z,812.59
2019-03-17T00:12:57.033Z,812.58
2019-03-17T00:13:01.140Z,812.6
2019-03-17T00:13:05.566Z,812.57
2019-03-17T00:13:09.913Z,812.55
2019-03-17T00:13:14.207Z,812.56
2019-03-17T00:13:21.433Z,812.53
2019-03-17T00:13:25.630Z,812.55
2019-03-17T00:13:29.932Z,812.51
2019-03-17T00:13:34.262Z,812.5
2019-03-17T00:13:38.555Z,812.5
2019-03-17T00:13:42.855Z,812.47
2019-03-17T00:13:47.161Z,812.46
2019-03-17T00:13:51.459Z,812.47
2019-03-17T00:13:55.756Z,812.44
2019-03-17T00:14:00.079Z,812.44
2019-03-17T00:14:04.371Z,812.42
2019-03-17T00:14:08.670Z,812.42
2019-03-17T00:14:12.866Z,812.44
2019-03-17T00:14:17.159Z,812.41
2019-03-17T00:14:21.447Z,812.4
2019-03-17T00:14:25.684Z,812.37
2019-03-17T00:14:29.982Z,812.36
2019-03-17T00:14:34.268Z,812.36
2019-03-17T00:14:38.482Z,812.34
2019-03-17T00:14:42.772Z,812.34
2019-03-17T00:14:47.067Z,812.31
2019-03-17T00:15:00.282Z,812.3
2019-03-17T00:15:10.070Z,812.24
2019-03-17T00:15:14.357Z,812.22
2019-03-17T00:15:18.678Z,812.2
2019-03-17T00:15:22.972Z,812.19
2019-03-17T00:15:27.267Z,812.22
2019-03-17T00:15:31.567Z,812.17
2019-03-17T00:15:35.823Z,812.12
2019-03-17T00:15:40.170Z,812.16
2019-03-17T00:15:44.468Z,812.15
2019-03-17T00:15:48.767Z,812.12
2019-03-17T00:15:53.062Z,812.14
2019-03-17T00:15:57.166Z,812.07
2019-03-17T00:16:01.478Z,812.08
2019-03-17T00:16:05.773Z,812.07
2019-03-17T00:16:10.075Z,812.06
2019-03-17T00:16:14.281Z,812.06
2019-03-17T00:16:18.580Z,812.01
2019-03-17T00:16:22.878Z,811.99
2019-03-17T00:16:27.178Z,811.99
2019-03-17T00:16:31.473Z,811.98
2019-03-17T00:16:35.696Z,811.94
2019-03-17T00:16:39.994Z,812
2019-03-17T00:16:44.293Z,811.92
2019-03-17T00:16:48.583Z,811.95
2019-03-17T00:16:52.875Z,811.93
2019-03-17T00:16:57.168Z,811.91
2019-03-17T00:17:01.471Z,811.91
2019-03-17T00:17:05.808Z,811.9
2019-03-17T00:17:10.103Z,811.9
2019-03-17T00:17:14.415Z,811.87
2019-03-17T00:17:18.705Z,811.87
2019-03-17T00:17:25.961Z,811.86
2019-03-17T00:17:30.256Z,811.8
2019-03-17T00:17:34.576Z,811.8
2019-03-17T00:17:41.661Z,811.8
2019-03-17T00:17:46.145Z,811.77
2019-03-17T00:17:50.434Z,811.74
2019-03-17T00:17:54.726Z,811.75
2019-03-17T00:17:59.033Z,811.71
2019-03-17T00:18:03.349Z,811.74
2019-03-17T00:18:07.652Z,811.74
2019-03-17T00:18:11.967Z,811.75
2019-03-17T00:18:16.261Z,811.7
2019-03-17T00:18:20.550Z,811.7
2019-03-17T00:18:24.837Z,811.68
2019-03-17T00:18:29.036Z,811.71
2019-03-17T00:18:33.331Z,811.69
2019-03-17T00:18:37.621Z,811.65
2019-03-17T00:18:41.939Z,811.61
2019-03-17T00:18:46.226Z,811.62
2019-03-17T00:18:50.422Z,811.59
2019-03-17T00:18:54.744Z,811.55
2019-03-17T00:18:59.038Z,811.56
2019-03-17T00:19:03.291Z,811.53
2019-03-17T00:19:07.603Z,811.54
2019-03-17T00:19:11.802Z,811.56
2019-03-17T00:19:16.096Z,811.52
2019-03-17T00:19:20.394Z,811.49
2019-03-17T00:19:27.426Z,811.5
2019-03-17T00:19:31.968Z,811.45
2019-03-17T00:19:36.163Z,811.46
2019-03-17T00:19:40.456Z,811.44
2019-03-17T00:19:44.759Z,811.42
2019-03-17T00:19:49.047Z,811.4
2019-03-17T00:19:53.237Z,811.3
2019-03-17T00:19:57.529Z,811.28
2019-03-17T00:20:01.984Z,811.31
2019-03-17T00:20:06.285Z,811.32
2019-03-17T00:20:10.596Z,811.25
2019-03-17T00:20:14.907Z,811.33
2019-03-17T00:20:19.199Z,811.3
2019-03-17T00:20:23.443Z,811.27
2019-03-17T00:20:27.735Z,811.26
2019-03-17T00:20:32.053Z,811.26
2019-03-17T00:20:36.351Z,811.23
2019-03-17T00:20:40.655Z,811.23
2019-03-17T00:20:44.965Z,811.24
2019-03-17T00:20:49.275Z,811.19
2019-03-17T00:20:53.568Z,811.16
2019-03-17T00:20:57.861Z,811.2
2019-03-17T00:21:02.156Z,811.17
2019-03-17T00:21:06.466Z,811.16
2019-03-17T00:21:10.762Z,811.13
2019-03-17T00:21:15.084Z,811.12
2019-03-17T00:21:19.421Z,811.11
2019-03-17T00:21:23.615Z,811.12
2019-03-17T00:21:27.920Z,811.1
2019-03-17T00:21:32.223Z,811.09
2019-03-17T00:21:36.514Z,811.12
2019-03-17T00:21:40.817Z,811.09
2019-03-17T00:21:45.115Z,811.08
2019-03-17T00:21:49.421Z,811.06
2019-03-17T00:21:53.718Z,811.05
2019-03-17T00:21:58.012Z,811
2019-03-17T00:22:02.208Z,811.03
2019-03-17T00:22:06.523Z,811.01
2019-03-17T00:22:10.629Z,810.98
2019-03-17T00:22:14.926Z,810.92
2019-03-17T00:22:19.219Z,810.94
2019-03-17T00:22:23.517Z,810.96
2019-03-17T00:22:27.619Z,810.95
2019-03-17T00:22:31.811Z,810.97
2019-03-17T00:22:36.075Z,810.95
2019-03-17T00:22:40.280Z,810.92
2019-03-17T00:22:44.586Z,810.9
2019-03-17T00:22:48.781Z,810.89
2019-03-17T00:22:53.084Z,810.9
2019-03-17T00:22:57.399Z,810.88
2019-03-17T00:23:01.616Z,810.85
2019-03-17T00:23:05.915Z,810.89
2019-03-17T00:23:10.206Z,810.85
2019-03-17T00:23:14.505Z,810.84
2019-03-17T00:23:18.811Z,810.85
2019-03-17T00:23:23.102Z,810.83
2019-03-17T00:23:27.387Z,810.78
2019-03-17T00:23:31.581Z,810.8
2019-03-17T00:23:35.905Z,810.76
2019-03-17T00:23:40.206Z,810.77
2019-03-17T00:23:44.494Z,810.8
2019-03-17T00:23:48.783Z,810.77
2019-03-17T00:23:53.078Z,810.76
2019-03-17T00:23:57.367Z,810.72
2019-03-17T00:24:01.678Z,810.67
2019-03-17T00:24:05.984Z,810.67
2019-03-17T00:24:10.290Z,810.72
2019-03-17T00:24:14.589Z,810.7
2019-03-17T00:24:18.789Z,810.71
2019-03-17T00:24:23.081Z,810.66
2019-03-17T00:24:27.369Z,810.7
2019-03-17T00:24:31.664Z,810.68
2019-03-17T00:24:35.869Z,810.66
2019-03-17T00:24:40.250Z,810.65
2019-03-17T00:24:44.563Z,810.62
2019-03-17T00:24:48.780Z,810.65
2019-03-17T00:24:52.988Z,810.59
2019-03-17T00:25:11.076Z,810.6
2019-03-17T00:25:15.305Z,810.59
2019-03-17T00:25:19.613Z,810.6
2019-03-17T00:25:23.917Z,810.57
2019-03-17T00:25:28.212Z,810.58
2019-03-17T00:25:32.496Z,810.57
2019-03-17T00:25:36.808Z,810.58
2019-03-17T00:25:41.163Z,810.55
2019-03-17T00:25:45.450Z,810.57
2019-03-17T00:25:49.740Z,810.55
2019-03-17T00:25:54.044Z,810.54
2019-03-17T00:25:58.348Z,810.51
2019-03-17T00:26:02.641Z,810.52
2019-03-17T00:26:06.945Z,810.54
2019-03-17T00:26:11.243Z,810.53
2019-03-17T00:26:15.534Z,810.51
2019-03-17T00:26:19.837Z,810.52
2019-03-17T00:26:24.136Z,810.49
2019-03-17T00:26:28.426Z,810.49
2019-03-17T00:26:32.725Z,810.49
2019-03-17T00:26:36.926Z,810.45
2019-03-17T00:26:41.221Z,810.46
2019-03-17T00:26:45.508Z,810.47
2019-03-17T00:26:49.793Z,810.48
2019-03-17T00:26:53.991Z,810.45
2019-03-17T00:26:58.200Z,810.45
2019-03-17T00:27:02.500Z,810.42
2019-03-17T00:27:06.801Z,810.41
2019-03-17T00:27:11.092Z,810.42
2019-03-17T00:27:15.371Z,810.41
2019-03-17T00:27:19.572Z,810.41
2019-03-17T00:27:23.861Z,810.41
2019-03-17T00:27:28.051Z,810.37
2019-03-17T00:27:32.358Z,810.39
2019-03-17T00:27:36.660Z,810.35
2019-03-17T00:27:40.969Z,810.37
2019-03-17T00:27:45.170Z,810.38
2019-03-17T00:27:49.461Z,810.37
2019-03-17T00:27:53.758Z,810.36
2019-03-17T00:27:58.071Z,810.35
2019-03-17T00:28:02.591Z,810.35
2019-03-17T00:28:06.788Z,810.34
2019-03-17T00:28:11.100Z,810.31
2019-03-17T00:28:15.295Z,810.31
2019-03-17T00:28:19.596Z,810.31
2019-03-17T00:28:23.883Z,810.32
2019-03-17T00:28:28.205Z,810.3
2019-03-17T00:28:32.499Z,810.23
2019-03-17T00:28:36.801Z,810.26
2019-03-17T00:28:41.092Z,810.28
2019-03-17T00:28:48.069Z,810.26
2019-03-17T00:28:52.270Z,810.22
2019-03-17T00:28:56.607Z,810.2
2019-03-17T00:29:00.898Z,810.2
2019-03-17T00:29:05.187Z,810.21
2019-03-17T00:29:09.475Z,810.17
2019-03-17T00:29:13.670Z,810.16
2019-03-17T00:29:17.962Z,810.12
2019-03-17T00:29:22.159Z,810.17
2019-03-17T00:29:26.463Z,810.17
2019-03-17T00:29:30.683Z,810.15
2019-03-17T00:29:34.987Z,810.13
2019-03-17T00:29:39.199Z,810.13
2019-03-17T00:29:43.401Z,810.11
2019-03-17T00:29:47.410Z,810.1
2019-03-17T00:29:51.607Z,810.12
2019-03-17T00:29:55.799Z,810.1
2019-03-17T00:30:00.340Z,810.07
2019-03-17T00:30:04.860Z,810.08
2019-03-17T00:30:09.161Z,810.04
2019-03-17T00:30:13.476Z,810.08
2019-03-17T00:30:17.762Z,810.07
2019-03-17T00:30:22.067Z,810.02
2019-03-17T00:30:26.364Z,810.03
2019-03-17T00:30:30.654Z,810
2019-03-17T00:30:34.959Z,809.99
2019-03-17T00:30:39.252Z,809.99
2019-03-17T00:30:43.565Z,809.99
2019-03-17T00:30:47.757Z,809.98
2019-03-17T00:30:52.054Z,810.02
2019-03-17T00:30:56.346Z,809.99
2019-03-17T00:31:00.542Z,809.99
2019-03-17T00:31:04.826Z,809.97
2019-03-17T00:31:09.116Z,809.98
2019-03-17T00:31:26.647Z,809.95
2019-03-17T00:31:30.837Z,809.9
2019-03-17T00:31:35.038Z,809.87
2019-03-17T00:31:39.322Z,809.93
2019-03-17T00:31:43.609Z,809.91
2019-03-17T00:31:47.895Z,809.91
2019-03-17T00:31:52.179Z,809.9
2019-03-17T00:31:56.467Z,809.92
2019-03-17T00:32:00.771Z,809.89
2019-03-17T00:32:05.064Z,809.89
2019-03-17T00:32:09.354Z,809.85
2019-03-17T00:32:13.642Z,809.83
2019-03-17T00:32:17.939Z,809.83
2019-03-17T00:32:22.244Z,809.84
2019-03-17T00:32:26.438Z,809.83
2019-03-17T00:32:30.729Z,809.82
2019-03-17T00:32:34.921Z,809.84
2019-03-17T00:32:39.214Z,809.79
2019-03-17T00:32:43.420Z,809.81
2019-03-17T00:32:47.718Z,809.78
2019-03-17T00:32:52.002Z,809.73
2019-03-17T00:32:56.308Z,809.77
2019-03-17T00:33:00.613Z,809.78
2019-03-17T00:33:04.948Z,809.74
2019-03-17T00:33:09.243Z,809.76
2019-03-17T00:33:13.532Z,809.75
2019-03-17T00:33:17.820Z,809.8
2019-03-17T00:33:22.144Z,809.79
2019-03-17T00:33:26.333Z,809.75
2019-03-17T00:33:30.639Z,809.74
2019-03-17T00:33:37.855Z,809.72
2019-03-17T00:33:42.151Z,809.74
2019-03-17T00:33:46.452Z,809.74
2019-03-17T00:33:50.647Z,809.75
2019-03-17T00:33:54.853Z,809.7
2019-03-17T00:33:59.156Z,809.71
2019-03-17T00:34:03.562Z,809.73
2019-03-17T00:34:07.881Z,809.73
2019-03-17T00:34:12.178Z,809.7
2019-03-17T00:34:16.551Z,809.72
2019-03-17T00:34:20.847Z,809.73
2019-03-17T00:34:25.140Z,809.69
2019-03-17T00:34:29.436Z,809.74
2019-03-17T00:34:46.784Z,809.72
2019-03-17T00:34:53.839Z,809.65
2019-03-17T00:34:58.141Z,809.69
2019-03-17T00:35:02.458Z,809.66
2019-03-17T00:35:06.763Z,809.66
2019-03-17T00:35:11.107Z,809.66
2019-03-17T00:35:15.320Z,809.64
2019-03-17T00:35:19.519Z,809.62
2019-03-17T00:35:23.828Z,809.64
2019-03-17T00:35:28.121Z,809.64
2019-03-17T00:35:32.414Z,809.6
2019-03-17T00:35:36.705Z,809.64
2019-03-17T00:35:41.002Z,809.62
2019-03-17T00:35:45.305Z,809.66
2019-03-17T00:35:49.603Z,809.64
2019-03-17T00:35:53.908Z,809.64
2019-03-17T00:35:58.197Z,809.61
2019-03-17T00:36:02.497Z,809.64
2019-03-17T00:36:06.695Z,809.58
2019-03-17T00:36:10.995Z,809.62
2019-03-17T00:36:15.284Z,809.59
2019-03-17T00:36:19.575Z,809.62
2019-03-17T00:36:23.867Z,809.62
2019-03-17T00:36:28.171Z,809.63
2019-03-17T00:36:32.472Z,809.64
2019-03-17T00:36:36.568Z,809.63
2019-03-17T00:36:40.774Z,809.65
2019-03-17T00:36:45.073Z,809.65
2019-03-17T00:36:49.368Z,809.63
2019-03-17T00:36:53.666Z,809.64
2019-03-17T00:36:57.972Z,809.64
2019-03-17T00:37:02.262Z,809.59
2019-03-17T00:37:06.554Z,809.63
2019-03-17T00:37:10.767Z,809.6
2019-03-17T00:37:14.876Z,809.59
2019-03-17T00:37:19.174Z,809.59
2019-03-17T00:37:23.474Z,809.59
2019-03-17T00:37:27.709Z,809.6
2019-03-17T00:37:31.999Z,809.62
2019-03-17T00:37:36.190Z,809.62
2019-03-17T00:37:40.486Z,809.6
2019-03-17T00:37:44.788Z,809.64
2019-03-17T00:37:48.982Z,809.57
2019-03-17T00:37:53.081Z,809.57
2019-03-17T00:37:57.278Z,809.59
2019-03-17T00:38:01.502Z,809.55
2019-03-17T00:38:05.614Z,809.51
2019-03-17T00:38:09.915Z,809.53
2019-03-17T00:38:14.113Z,809.53
2019-03-17T00:38:18.420Z,809.53
2019-03-17T00:38:22.617Z,809.55
2019-03-17T00:38:26.862Z,809.53
2019-03-17T00:38:31.151Z,809.56
2019-03-17T00:38:35.359Z,809.6
2019-03-17T00:38:39.657Z,809.53
2019-03-17T00:38:43.961Z,809.53
2019-03-17T00:38:48.159Z,809.49
2019-03-17T00:38:52.422Z,809.54
2019-03-17T00:38:56.749Z,809.53
2019-03-17T00:39:00.948Z,809.52
2019-03-17T00:39:05.342Z,809.54
2019-03-17T00:39:09.552Z,809.51
2019-03-17T00:39:13.938Z,809.52
2019-03-17T00:39:18.155Z,809.5
2019-03-17T00:39:22.479Z,809.5
2019-03-17T00:39:26.777Z,809.48
2019-03-17T00:39:31.071Z,809.52
2019-03-17T00:39:35.366Z,809.47
2019-03-17T00:39:39.656Z,809.51
2019-03-17T00:39:43.943Z,809.5
2019-03-17T00:39:50.934Z,809.47
2019-03-17T00:39:55.038Z,809.52
2019-03-17T00:39:59.348Z,809.52
2019-03-17T00:40:03.651Z,809.52
2019-03-17T00:40:07.953Z,809.49
2019-03-17T00:40:12.166Z,809.49
2019-03-17T00:40:16.391Z,809.48
2019-03-17T00:40:20.687Z,809.53
2019-03-17T00:40:24.985Z,809.48
2019-03-17T00:40:29.337Z,809.47
2019-03-17T00:40:33.647Z,809.47
2019-03-17T00:40:37.931Z,809.52
2019-03-17T00:40:42.193Z,809.49
2019-03-17T00:40:46.539Z,809.46
2019-03-17T00:40:50.848Z,809.47
2019-03-17T00:40:55.145Z,809.46
2019-03-17T00:40:59.438Z,809.48
2019-03-17T00:41:03.636Z,809.47
2019-03-17T00:41:07.924Z,809.45
2019-03-17T00:41:12.217Z,809.49
2019-03-17T00:41:16.550Z,809.51
2019-03-17T00:41:20.853Z,809.5
2019-03-17T00:41:25.071Z,809.48
2019-03-17T00:41:32.371Z,809.43
2019-03-17T00:41:36.634Z,809.44
2019-03-17T00:41:40.932Z,809.45
2019-03-17T00:41:45.151Z,809.47
2019-03-17T00:41:49.441Z,809.45
2019-03-17T00:41:53.735Z,809.49
2019-03-17T00:41:57.932Z,809.47
2019-03-17T00:42:02.232Z,809.47
2019-03-17T00:42:06.426Z,809.47
2019-03-17T00:42:10.639Z,809.48
2019-03-17T00:42:14.835Z,809.46
2019-03-17T00:42:19.150Z,809.44
2019-03-17T00:42:23.453Z,809.46
2019-03-17T00:42:27.647Z,809.43
2019-03-17T00:42:31.879Z,809.45
2019-03-17T00:42:36.172Z,809.46
2019-03-17T00:42:40.470Z,809.46
2019-03-17T00:42:44.677Z,809.48
2019-03-17T00:42:48.964Z,809.43
2019-03-17T00:42:53.256Z,809.47
2019-03-17T00:42:57.457Z,809.48
2019-03-17T00:43:01.666Z,809.48
2019-03-17T00:43:06.017Z,809.49
2019-03-17T00:43:10.334Z,809.45
2019-03-17T00:43:14.542Z,809.44
2019-03-17T00:43:18.848Z,809.46
2019-03-17T00:43:23.208Z,809.43
2019-03-17T00:43:27.500Z,809.44
2019-03-17T00:43:31.789Z,809.46
2019-03-17T00:43:36.157Z,809.42
2019-03-17T00:43:40.351Z,809.37
2019-03-17T00:43:44.650Z,809.4
2019-03-17T00:43:48.874Z,809.44
2019-03-17T00:43:53.082Z,809.41
2019-03-17T00:43:57.443Z,809.41
2019-03-17T00:44:01.731Z,809.37
2019-03-17T00:44:06.075Z,809.42
2019-03-17T00:44:10.375Z,809.43
2019-03-17T00:44:14.581Z,809.44
2019-03-17T00:44:18.867Z,809.41
2019-03-17T00:44:23.184Z,809.41
2019-03-17T00:44:27.379Z,809.36
2019-03-17T00:44:31.702Z,809.38
2019-03-17T00:44:35.995Z,809.37
2019-03-17T00:44:40.281Z,809.39
2019-03-17T00:44:44.578Z,809.35
2019-03-17T00:44:48.876Z,809.33
2019-03-17T00:44:53.083Z,809.31
2019-03-17T00:44:57.079Z,809.31
2019-03-17T00:45:01.290Z,809.29
2019-03-17T00:45:05.616Z,809.3
2019-03-17T00:45:13.026Z,809.32
2019-03-17T00:45:17.321Z,809.28
2019-03-17T00:45:21.619Z,809.3
2019-03-17T00:45:25.919Z,809.29
2019-03-17T00:45:30.235Z,809.3
2019-03-17T00:45:34.434Z,809.24
2019-03-17T00:45:38.806Z,809.29
2019-03-17T00:45:43.013Z,809.28
2019-03-17T00:45:47.304Z,809.26
2019-03-17T00:45:51.613Z,809.28
2019-03-17T00:45:55.906Z,809.21
2019-03-17T00:46:00.222Z,809.25
2019-03-17T00:46:04.420Z,809.24
2019-03-17T00:46:08.710Z,809.25
2019-03-17T00:46:13.001Z,809.22
2019-03-17T00:46:17.290Z,809.23
2019-03-17T00:46:21.588Z,809.23
2019-03-17T00:46:25.777Z,809.24
2019-03-17T00:46:30.070Z,809.21
2019-03-17T00:46:34.388Z,809.17
2019-03-17T00:46:38.680Z,809.22
2019-03-17T00:46:42.980Z,809.21
2019-03-17T00:46:47.352Z,809.25
2019-03-17T00:46:51.654Z,809.23
2019-03-17T00:46:55.756Z,809.22
2019-03-17T00:47:00.055Z,809.22
2019-03-17T00:47:04.351Z,809.2
2019-03-17T00:47:11.619Z,809.22
2019-03-17T00:47:15.943Z,809.18
2019-03-17T00:47:20.179Z,809.2
2019-03-17T00:47:24.514Z,809.2
2019-03-17T00:47:28.703Z,809.2
2019-03-17T00:47:33.062Z,809.24
2019-03-17T00:47:37.364Z,809.22
2019-03-17T00:47:41.719Z,809.15
2019-03-17T00:47:46.017Z,809.18
2019-03-17T00:47:50.214Z,809.2
2019-03-17T00:47:54.332Z,809.23
2019-03-17T00:47:58.624Z,809.2
2019-03-17T00:48:02.920Z,809.19
2019-03-17T00:48:07.239Z,809.21
2019-03-17T00:48:11.545Z,809.18
2019-03-17T00:48:15.841Z,809.14
2019-03-17T00:48:20.206Z,809.14
2019-03-17T00:48:24.320Z,809.11
2019-03-17T00:48:28.614Z,809.17
2019-03-17T00:48:32.946Z,809.15
2019-03-17T00:48:37.169Z,809.15
2019-03-17T00:48:41.360Z,809.19
2019-03-17T00:48:45.559Z,809.14
2019-03-17T00:48:49.877Z,809.13
2019-03-17T00:48:54.170Z,809.12
2019-03-17T00:48:58.468Z,809.12
2019-03-17T00:49:02.819Z,809.11
2019-03-17T00:49:07.135Z,809.09
2019-03-17T00:49:11.332Z,809.09
2019-03-17T00:49:15.624Z,809.09
2019-03-17T00:49:19.952Z,809.08
2019-03-17T00:49:24.243Z,809.03
2019-03-17T00:49:28.540Z,809.1
2019-03-17T00:49:32.742Z,809.05
2019-03-17T00:49:37.036Z,809.02
2019-03-17T00:49:41.421Z,809.05
2019-03-17T00:49:45.541Z,809.02
2019-03-17T00:49:49.840Z,809.01
2019-03-17T00:49:54.041Z,809
2019-03-17T00:49:58.336Z,808.98
2019-03-17T00:50:02.732Z,808.98
2019-03-17T00:50:06.952Z,808.96
2019-03-17T00:50:11.289Z,808.99
2019-03-17T00:50:15.584Z,808.97
2019-03-17T00:50:19.785Z,808.91
2019-03-17T00:50:24.076Z,808.95
2019-03-17T00:50:28.375Z,808.96
2019-03-17T00:50:32.481Z,808.94
2019-03-17T00:50:36.793Z,808.9
2019-03-17T00:50:41.026Z,808.91
2019-03-17T00:50:45.321Z,808.9
2019-03-17T00:50:52.438Z,808.92
2019-03-17T00:50:56.750Z,808.9
2019-03-17T00:51:01.063Z,808.91
2019-03-17T00:51:05.353Z,808.88
2019-03-17T00:51:09.662Z,808.89
2019-03-17T00:51:13.962Z,808.84
2019-03-17T00:51:18.264Z,808.85
2019-03-17T00:51:22.560Z,808.86
2019-03-17T00:51:26.856Z,808.84
2019-03-17T00:51:31.196Z,808.82
2019-03-17T00:51:35.395Z,808.84
2019-03-17T00:51:39.691Z,808.79
2019-03-17T00:51:44.020Z,808.76
2019-03-17T00:51:48.334Z,808.76
2019-03-17T00:51:52.534Z,808.77
2019-03-17T00:51:56.824Z,808.73
2019-03-17T00:52:01.020Z,808.71
2019-03-17T00:52:05.322Z,808.67
2019-03-17T00:52:09.615Z,808.71
2019-03-17T00:52:13.907Z,808.73
2019-03-17T00:52:18.106Z,808.71
2019-03-17T00:52:22.327Z,808.65
2019-03-17T00:52:26.519Z,808.68
2019-03-17T00:52:30.812Z,808.69
2019-03-17T00:52:35.206Z,808.66
2019-03-17T00:52:39.500Z,808.66
2019-03-17T00:52:43.885Z,808.65
2019-03-17T00:52:48.100Z,808.63
2019-03-17T00:52:52.313Z,808.64
2019-03-17T00:52:56.625Z,808.59
2019-03-17T00:53:00.979Z,808.6
2019-03-17T00:53:05.299Z,808.58
2019-03-17T00:53:09.495Z,808.56
2019-03-17T00:53:13.824Z,808.58
2019-03-17T00:53:18.118Z,808.52
2019-03-17T00:53:22.416Z,808.53
2019-03-17T00:53:26.612Z,808.56
2019-03-17T00:53:30.823Z,808.53
2019-03-17T00:53:35.092Z,808.51
2019-03-17T00:53:39.383Z,808.51
2019-03-17T00:53:43.585Z,808.48
2019-03-17T00:53:47.702Z,808.46
2019-03-17T00:53:51.907Z,808.42
2019-03-17T00:53:56.194Z,808.45
2019-03-17T00:54:00.382Z,808.44
2019-03-17T00:54:04.694Z,808.45
2019-03-17T00:54:08.992Z,808.46
2019-03-17T00:54:13.295Z,808.45
2019-03-17T00:54:17.590Z,808.45
2019-03-17T00:54:21.912Z,808.4
2019-03-17T00:54:26.129Z,808.38
2019-03-17T00:54:30.437Z,808.34
2019-03-17T00:54:34.730Z,808.33
2019-03-17T00:54:39.022Z,808.32
2019-03-17T00:54:43.225Z,808.34
2019-03-17T00:54:47.327Z,808.33
2019-03-17T00:54:51.621Z,808.31
2019-03-17T00:54:55.823Z,808.34
2019-03-17T00:55:00.209Z,808.3
2019-03-17T00:55:04.761Z,808.26
2019-03-17T00:55:09.059Z,808.34
2019-03-17T00:55:13.387Z,808.26
2019-03-17T00:55:17.678Z,808.26
2019-03-17T00:55:21.969Z,808.28
2019-03-17T00:55:26.258Z,808.19
2019-03-17T00:55:30.573Z,808.23
2019-03-17T00:55:34.836Z,808.21
2019-03-17T00:55:39.130Z,808.23
2019-03-17T00:55:43.427Z,808.25
2019-03-17T00:55:47.727Z,808.22
2019-03-17T00:55:52.021Z,808.21
2019-03-17T00:55:56.342Z,808.08
2019-03-17T00:56:00.633Z,808.11
2019-03-17T00:56:04.930Z,808.17